createdAt,value
2014-10-09T00:00:29.656Z,71.31
2014-10-09T00:01:34.361Z,70.8
2014-10-09T00:02:39.051Z,70.9
2014-10-09T00:03:43.740Z,71.6
2014-10-09T00:04:48.445Z,71.42
2014-10-09T00:05:53.150Z,71.13
2014-10-09T00:06:57.840Z,71.13
2014-10-09T00:08:02.545Z,70.97
2014-10-09T00:09:07.234Z,71.44
2014-10-09T00:10:11.940Z,71.35
2014-10-09T00:11:16.644Z,70.85
2014-10-09T00:12:20.647Z,72.41
2014-10-09T00:13:25.336Z,71.24
2014-10-09T00:14:30.058Z,70.43
2014-10-09T00:15:34.763Z,70.82
2014-10-09T00:16:39.452Z,71.89
2014-10-09T00:17:44.157Z,72.74
2014-10-09T00:18:48.862Z,73.13
2014-10-09T00:19:53.849Z,73.61
2014-10-09T00:20:58.836Z,72.77
2014-10-09T00:22:03.540Z,71.7
2014-10-09T00:23:08.245Z,72.49
2014-10-09T00:24:13.233Z,71.97
2014-10-09T00:25:17.938Z,71.7
2014-10-09T00:26:22.923Z,72.75
2014-10-09T00:27:27.628Z,73.38
2014-10-09T00:28:32.319Z,73.37
2014-10-09T00:29:37.024Z,73.14
2014-10-09T00:30:41.729Z,72.6
2014-10-09T00:31:46.434Z,71.96
2014-10-09T00:32:51.139Z,71.63
2014-10-09T00:33:56.126Z,71.85
2014-10-09T00:35:00.831Z,72.67
2014-10-09T00:36:05.537Z,72.38
2014-10-09T00:37:10.242Z,73.06
2014-10-09T00:38:14.962Z,72.27
2014-10-09T00:39:19.668Z,72.14
2014-10-09T00:40:24.373Z,71.83
2014-10-09T00:41:29.077Z,71.5
2014-10-09T00:42:33.782Z,71.78
2014-10-09T00:43:38.489Z,71.44
2014-10-09T00:44:43.194Z,73.05
2014-10-09T00:45:47.899Z,74.05
2014-10-09T00:46:52.588Z,74.2
2014-10-09T00:47:57.293Z,74.32
2014-10-09T00:49:01.999Z,74.28
2014-10-09T00:50:07.001Z,74.51
2014-10-09T00:51:11.706Z,74.74
2014-10-09T00:52:16.396Z,74.6
2014-10-09T00:53:21.100Z,73.99
2014-10-09T00:54:25.805Z,73.25
2014-10-09T00:55:30.511Z,73.61
2014-10-09T00:56:35.217Z,73.92
2014-10-09T00:57:39.906Z,74.11
2014-10-09T00:58:44.907Z,73.92
2014-10-09T00:59:49.612Z,74.27
2014-10-09T01:00:54.318Z,73.92
2014-10-09T01:01:59.039Z,73.79
2014-10-09T01:03:03.744Z,73.88
2014-10-09T01:04:08.434Z,73.17
2014-10-09T01:05:13.436Z,72.33
2014-10-09T01:06:18.141Z,72.01
2014-10-09T01:07:22.847Z,71.96
2014-10-09T01:08:27.567Z,71.76
2014-10-09T01:09:32.257Z,71.68
2014-10-09T01:10:36.961Z,72.46
2014-10-09T01:11:41.667Z,72.72
2014-10-09T01:12:46.357Z,72.61
2014-10-09T01:13:51.062Z,71.89
2014-10-09T01:14:55.751Z,72.5
2014-10-09T01:16:00.457Z,72.46
2014-10-09T01:17:05.459Z,72.19
2014-10-09T01:18:10.148Z,72.54
2014-10-09T01:19:14.838Z,73.13
2014-10-09T01:20:19.543Z,72.56
2014-10-09T01:21:24.249Z,71.73
2014-10-09T01:22:29.234Z,71.75
2014-10-09T01:23:34.222Z,70.84
2014-10-09T01:24:39.208Z,72.31
2014-10-09T01:25:43.912Z,72.89
2014-10-09T01:26:48.602Z,73.62
2014-10-09T01:27:53.308Z,74
2014-10-09T01:28:58.294Z,74.23
2014-10-09T01:30:02.999Z,74.04
2014-10-09T01:31:07.986Z,74.19
2014-10-09T01:32:12.675Z,73.77
2014-10-09T01:33:17.380Z,73.98
2014-10-09T01:34:22.070Z,74.29
2014-10-09T01:35:26.776Z,74.43
2014-10-09T01:36:31.466Z,74.37
2014-10-09T01:37:36.185Z,74.18
2014-10-09T01:38:40.876Z,74.26
2014-10-09T01:39:45.581Z,74.26
2014-10-09T01:40:50.566Z,75.02
2014-10-09T01:41:55.256Z,74.84
2014-10-09T01:42:59.962Z,74.15
2014-10-09T01:44:04.667Z,74.22
2014-10-09T01:45:09.357Z,74.46
2014-10-09T01:46:14.062Z,74.11
2014-10-09T01:47:18.751Z,73.19
2014-10-09T01:48:23.738Z,72.71
2014-10-09T01:49:28.458Z,72.07
2014-10-09T01:50:33.148Z,71.25
2014-10-09T01:51:37.854Z,71.5
2014-10-09T01:52:42.839Z,73.06
2014-10-09T01:53:47.529Z,73.1
2014-10-09T01:54:52.235Z,72.43
2014-10-09T01:55:56.940Z,73.25
2014-10-09T01:57:01.629Z,73.82
2014-10-09T01:58:06.335Z,73.41
2014-10-09T01:59:11.024Z,72.8
2014-10-09T02:00:15.713Z,72.42
2014-10-09T02:01:20.419Z,72.88
2014-10-09T02:02:25.140Z,73.64
2014-10-09T02:03:29.829Z,73.91
2014-10-09T02:04:34.535Z,73.59
2014-10-09T02:05:39.224Z,73.25
2014-10-09T02:06:43.929Z,72.6
2014-10-09T02:07:48.619Z,72.1
2014-10-09T02:08:53.323Z,72.31
2014-10-09T02:09:58.014Z,71.81
2014-10-09T02:11:03.016Z,71.74
2014-10-09T02:12:07.704Z,71.78
2014-10-09T02:13:12.411Z,71.81
2014-10-09T02:14:17.100Z,71.93
2014-10-09T02:15:21.805Z,71.83
2014-10-09T02:16:26.495Z,71.4
2014-10-09T02:17:31.200Z,70.94
2014-10-09T02:18:35.905Z,72.93
2014-10-09T02:19:40.594Z,72.8
2014-10-09T02:20:45.300Z,72.74
2014-10-09T02:21:49.990Z,73.04
2014-10-09T02:22:54.695Z,72.63
2014-10-09T02:23:59.384Z,72.18
2014-10-09T02:25:04.090Z,71.97
2014-10-09T02:26:09.092Z,72.36
2014-10-09T02:27:13.812Z,71.96
2014-10-09T02:28:18.518Z,72.18
2014-10-09T02:29:23.051Z,72.29
2014-10-09T02:30:27.756Z,71.81
2014-10-09T02:31:32.461Z,73.4
2014-10-09T02:32:37.151Z,73.67
2014-10-09T02:33:41.856Z,73.76
2014-10-09T02:34:46.561Z,73.14
2014-10-09T02:35:51.250Z,73.25
2014-10-09T02:36:55.956Z,73.47
2014-10-09T02:38:00.943Z,73.62
2014-10-09T02:39:05.664Z,73.51
2014-10-09T02:40:10.353Z,73.41
2014-10-09T02:41:15.340Z,74.18
2014-10-09T02:42:20.045Z,74
2014-10-09T02:43:24.750Z,74.12
2014-10-09T02:44:29.438Z,73.52
2014-10-09T02:45:34.144Z,73.89
2014-10-09T02:46:38.850Z,73.75
2014-10-09T02:47:43.555Z,73.6
2014-10-09T02:48:48.261Z,73.83
2014-10-09T02:49:52.949Z,73.83
2014-10-09T02:50:57.654Z,73.66
2014-10-09T02:52:02.375Z,72.64
2014-10-09T02:53:07.080Z,72.51
2014-10-09T02:54:11.785Z,72.03
2014-10-09T02:55:16.492Z,71.81
2014-10-09T02:56:21.197Z,71.42
2014-10-09T02:57:25.886Z,71.82
2014-10-09T02:58:30.887Z,71.22
2014-10-09T02:59:35.592Z,70.93
2014-10-09T03:00:40.580Z,70.88
2014-10-09T03:01:45.285Z,70.66
2014-10-09T03:02:49.990Z,70.68
2014-10-09T03:03:54.695Z,70.55
2014-10-09T03:04:59.401Z,70.73
2014-10-09T03:06:04.105Z,70.89
2014-10-09T03:07:09.092Z,70.88
2014-10-09T03:08:13.797Z,70.59
2014-10-09T03:09:18.503Z,70.79
2014-10-09T03:10:23.208Z,70.89
2014-10-09T03:11:27.913Z,71.26
2014-10-09T03:12:32.617Z,71.11
2014-10-09T03:13:37.322Z,71.55
2014-10-09T03:14:42.044Z,70.94
2014-10-09T03:15:46.781Z,71.43
2014-10-09T03:16:51.486Z,71.49
2014-10-09T03:17:56.191Z,71.37
2014-10-09T03:19:00.896Z,71.51
2014-10-09T03:20:05.601Z,71.72
2014-10-09T03:21:10.306Z,71.3
2014-10-09T03:22:15.293Z,71.47
2014-10-09T03:23:19.998Z,71.23
2014-10-09T03:24:24.704Z,71.53
2014-10-09T03:25:29.425Z,71.64
2014-10-09T03:26:34.114Z,71.72
2014-10-09T03:27:38.819Z,71.55
2014-10-09T03:28:43.509Z,71.73
2014-10-09T03:29:48.198Z,71.38
2014-10-09T03:30:53.200Z,71.83
2014-10-09T03:31:57.890Z,71.8
2014-10-09T03:33:02.595Z,71.55
2014-10-09T03:34:07.581Z,71.46
2014-10-09T03:35:12.271Z,70.66
2014-10-09T03:36:16.976Z,70.17
2014-10-09T03:37:21.666Z,70.81
2014-10-09T03:38:26.370Z,71.26
2014-10-09T03:39:31.358Z,71.38
2014-10-09T03:40:35.656Z,71.24
2014-10-09T03:41:40.362Z,70.74
2014-10-09T03:42:45.050Z,70.63
2014-10-09T03:43:49.761Z,70.89
2014-10-09T03:44:54.496Z,71.12
2014-10-09T03:45:59.246Z,70.51
2014-10-09T03:47:03.980Z,70.36
2014-10-09T03:48:08.730Z,70.45
2014-10-09T03:49:12.764Z,70.08
2014-10-09T03:50:16.782Z,70.37
2014-10-09T03:51:21.486Z,70.7
2014-10-09T03:52:26.207Z,70.46
2014-10-09T03:53:31.211Z,70.27
2014-10-09T03:54:35.923Z,70.46
2014-10-09T03:55:40.634Z,70.43
2014-10-09T03:56:45.329Z,70.66
2014-10-09T03:57:50.041Z,70.16
2014-10-09T03:58:54.735Z,70.39
2014-10-09T03:59:58.756Z,70.37
2014-10-09T04:01:03.447Z,70.24
2014-10-09T04:02:08.138Z,71.29
2014-10-09T04:03:12.846Z,71.07
2014-10-09T04:04:17.536Z,70.85
2014-10-09T04:05:22.241Z,70.52
2014-10-09T04:06:27.229Z,70.47
2014-10-09T04:07:31.934Z,70.23
2014-10-09T04:08:36.640Z,70.04
2014-10-09T04:09:41.330Z,70.03
2014-10-09T04:10:46.317Z,70.09
2014-10-09T04:11:51.023Z,69.82
2014-10-09T04:12:56.025Z,69.96
2014-10-09T04:14:00.715Z,69.76
2014-10-09T04:15:05.420Z,69.24
2014-10-09T04:16:10.407Z,69.9
2014-10-09T04:17:15.096Z,70.39
2014-10-09T04:18:19.801Z,70.07
2014-10-09T04:19:24.788Z,70.18
2014-10-09T04:20:29.493Z,70.52
2014-10-09T04:21:34.182Z,70.71
2014-10-09T04:22:38.888Z,70.86
2014-10-09T04:23:43.874Z,70.67
2014-10-09T04:24:48.579Z,70.55
2014-10-09T04:25:53.269Z,70.45
2014-10-09T04:26:57.974Z,70.49
2014-10-09T04:28:02.960Z,69.86
2014-10-09T04:29:07.650Z,69.9
2014-10-09T04:30:12.355Z,69.66
2014-10-09T04:31:17.061Z,69.95
2014-10-09T04:32:22.047Z,70.48
2014-10-09T04:33:26.752Z,70.38
2014-10-09T04:34:31.442Z,71.32
2014-10-09T04:35:36.147Z,71.21
2014-10-09T04:36:41.134Z,70.44
2014-10-09T04:37:45.823Z,70.52
2014-10-09T04:38:50.528Z,70.65
2014-10-09T04:39:55.218Z,70.61
2014-10-09T04:41:00.204Z,71.53
2014-10-09T04:42:04.910Z,72.28
2014-10-09T04:43:09.599Z,71.5
2014-10-09T04:44:13.616Z,72.5
2014-10-09T04:45:17.634Z,72.82
2014-10-09T04:46:22.323Z,73.46
2014-10-09T04:47:27.325Z,73.27
2014-10-09T04:48:32.016Z,73.76
2014-10-09T04:49:37.018Z,74.22
2014-10-09T04:50:41.707Z,74.53
2014-10-09T04:51:46.413Z,74.35
2014-10-09T04:52:51.102Z,74.36
2014-10-09T04:53:55.807Z,74.37
2014-10-09T04:55:00.512Z,74.63
2014-10-09T04:56:05.202Z,74.47
2014-10-09T04:57:09.907Z,74.69
2014-10-09T04:58:14.893Z,73.15
2014-10-09T04:59:19.598Z,73.68
2014-10-09T05:00:24.585Z,74.11
2014-10-09T05:01:29.291Z,73.9
2014-10-09T05:02:33.996Z,74.81
2014-10-09T05:03:38.997Z,74.79
2014-10-09T05:04:43.983Z,75.24
2014-10-09T05:05:48.689Z,75.14
2014-10-09T05:06:53.534Z,75.25
2014-10-09T05:07:58.240Z,74.92
2014-10-09T05:09:02.946Z,75.43
2014-10-09T05:10:07.948Z,75.29
2014-10-09T05:11:12.653Z,74.94
2014-10-09T05:12:17.343Z,74.87
2014-10-09T05:13:22.344Z,74.92
2014-10-09T05:14:27.049Z,75.19
2014-10-09T05:15:31.754Z,75.36
2014-10-09T05:16:36.460Z,75.31
2014-10-09T05:17:41.462Z,75.26
2014-10-09T05:18:46.152Z,74.79
2014-10-09T05:19:50.857Z,74.93
2014-10-09T05:20:55.561Z,75.65
2014-10-09T05:22:00.266Z,74.73
2014-10-09T05:23:05.269Z,74.18
2014-10-09T05:24:09.975Z,74.78
2014-10-09T05:25:14.961Z,74.92
2014-10-09T05:26:19.666Z,75.37
2014-10-09T05:27:24.668Z,74.96
2014-10-09T05:28:29.374Z,75.26
2014-10-09T05:29:34.078Z,75.09
2014-10-09T05:30:38.783Z,75.28
2014-10-09T05:31:43.490Z,75.43
2014-10-09T05:32:48.194Z,75.27
2014-10-09T05:33:52.900Z,75.36
2014-10-09T05:34:57.605Z,75.29
2014-10-09T05:36:02.310Z,75.24
2014-10-09T05:37:07.015Z,75.28
2014-10-09T05:38:11.720Z,75.39
2014-10-09T05:39:16.410Z,75.58
2014-10-09T05:40:21.099Z,75.4
2014-10-09T05:41:25.804Z,74.17
2014-10-09T05:42:30.791Z,73.1
2014-10-09T05:43:35.480Z,73.72
2014-10-09T05:44:40.467Z,74.1
2014-10-09T05:45:44.484Z,74.36
2014-10-09T05:46:49.174Z,73
2014-10-09T05:47:54.161Z,72.77
2014-10-09T05:48:58.865Z,73.41
2014-10-09T05:50:03.555Z,74.13
2014-10-09T05:51:08.261Z,74.37
2014-10-09T05:52:12.950Z,73.76
2014-10-09T05:53:17.937Z,72
2014-10-09T05:54:22.642Z,71.22
2014-10-09T05:55:27.628Z,72.13
2014-10-09T05:56:32.333Z,73.27
2014-10-09T05:57:37.023Z,73.64
2014-10-09T05:58:41.729Z,73.97
2014-10-09T05:59:46.418Z,74.23
2014-10-09T06:00:51.123Z,73.9
2014-10-09T06:01:56.110Z,72.26
2014-10-09T06:03:00.800Z,72.09
2014-10-09T06:04:05.505Z,71.29
2014-10-09T06:05:10.194Z,70.7
2014-10-09T06:06:15.180Z,70.66
2014-10-09T06:07:20.167Z,71.54
2014-10-09T06:08:24.872Z,71.55
2014-10-09T06:09:29.874Z,70.99
2014-10-09T06:10:34.564Z,71.39
2014-10-09T06:11:39.550Z,72.2
2014-10-09T06:12:44.239Z,73.37
2014-10-09T06:13:49.241Z,72.48
2014-10-09T06:14:53.244Z,72.96
2014-10-09T06:15:57.949Z,73.61
2014-10-09T06:17:02.638Z,74.02
2014-10-09T06:18:07.344Z,73.27
2014-10-09T06:19:12.033Z,73.26
2014-10-09T06:20:16.739Z,73.06
2014-10-09T06:21:21.444Z,72.51
2014-10-09T06:22:26.132Z,72.56
2014-10-09T06:23:30.839Z,72.49
2014-10-09T06:24:35.528Z,72.49
2014-10-09T06:25:40.530Z,72.12
2014-10-09T06:26:45.236Z,70.59
2014-10-09T06:27:49.925Z,68.14
2014-10-09T06:28:54.630Z,62.9
2014-10-09T06:29:59.319Z,58.51
2014-10-09T06:31:04.024Z,55.64
2014-10-09T06:32:08.731Z,53.56
2014-10-09T06:33:13.419Z,51.91
2014-10-09T06:34:18.125Z,50.67
2014-10-09T06:35:22.142Z,49.18
2014-10-09T06:36:26.831Z,47.58
2014-10-09T06:37:31.833Z,45.76
2014-10-09T06:38:36.524Z,45.4
2014-10-09T06:39:41.229Z,45.12
2014-10-09T06:40:45.934Z,44.67
2014-10-09T06:41:50.639Z,44.13
2014-10-09T06:42:55.360Z,43.03
2014-10-09T06:44:00.065Z,44.15
2014-10-09T06:45:04.770Z,43.15
2014-10-09T06:46:09.475Z,42.48
2014-10-09T06:47:14.180Z,42.86
2014-10-09T06:48:19.182Z,42.29
2014-10-09T06:49:23.888Z,42.51
2014-10-09T06:50:28.874Z,41.4
2014-10-09T06:51:34.174Z,40.7
2014-10-09T06:52:38.910Z,40.52
2014-10-09T06:53:43.614Z,38.89
2014-10-09T06:54:48.320Z,38.55
2014-10-09T06:55:53.322Z,38.41
2014-10-09T06:56:58.324Z,38.88
2014-10-09T06:58:03.326Z,39.67
2014-10-09T06:59:08.032Z,39.83
2014-10-09T07:00:12.049Z,40.24
2014-10-09T07:01:16.754Z,44.02
2014-10-09T07:02:21.474Z,47.3
2014-10-09T07:03:26.181Z,49.18
2014-10-09T07:04:30.199Z,50.35
2014-10-09T07:05:34.904Z,49.33
2014-10-09T07:06:39.609Z,49.92
2014-10-09T07:07:44.611Z,50.19
2014-10-09T07:08:49.316Z,50.69
2014-10-09T07:09:54.036Z,52.37
2014-10-09T07:10:58.773Z,51.89
2014-10-09T07:12:03.478Z,52.52
2014-10-09T07:13:08.184Z,52.8
2014-10-09T07:14:12.889Z,53.51
2014-10-09T07:15:17.594Z,54.41
2014-10-09T07:16:22.597Z,53.77
2014-10-09T07:17:27.318Z,54.36
2014-10-09T07:18:32.022Z,56.05
2014-10-09T07:19:36.728Z,55.87
2014-10-09T07:20:41.730Z,55.91
2014-10-09T07:21:46.418Z,55.68
2014-10-09T07:22:51.123Z,55.73
2014-10-09T07:23:55.830Z,55.13
2014-10-09T07:25:00.535Z,55.36
2014-10-09T07:26:05.521Z,54.68
2014-10-09T07:27:10.227Z,54.26
2014-10-09T07:28:15.228Z,54.98
2014-10-09T07:29:19.933Z,54.85
2014-10-09T07:30:24.623Z,55.54
2014-10-09T07:31:29.329Z,54.95
2014-10-09T07:32:34.034Z,56.3
2014-10-09T07:33:38.739Z,55.59
2014-10-09T07:34:43.428Z,54.65
2014-10-09T07:35:48.134Z,54.68
2014-10-09T07:36:52.839Z,55.3
2014-10-09T07:37:57.528Z,56.86
2014-10-09T07:39:02.234Z,57.89
2014-10-09T07:40:06.939Z,57.83
2014-10-09T07:41:11.628Z,58.76
2014-10-09T07:42:16.333Z,58.44
2014-10-09T07:43:21.038Z,59.75
2014-10-09T07:44:25.744Z,59.3
2014-10-09T07:45:30.449Z,60.03
2014-10-09T07:46:35.154Z,62.21
2014-10-09T07:47:39.860Z,64.58
2014-10-09T07:48:44.565Z,64.23
2014-10-09T07:49:49.551Z,63.22
2014-10-09T07:50:54.256Z,64.42
2014-10-09T07:51:58.962Z,63.62
2014-10-09T07:53:03.948Z,62.98
2014-10-09T07:54:08.638Z,62.95
2014-10-09T07:55:13.343Z,61.94
2014-10-09T07:56:18.048Z,60.41
2014-10-09T07:57:22.753Z,60.69
2014-10-09T07:58:27.442Z,60.67
2014-10-09T07:59:32.444Z,60.97
2014-10-09T08:00:37.150Z,60.44
2014-10-09T08:01:41.840Z,61.51
2014-10-09T08:02:46.545Z,60.12
2014-10-09T08:03:51.249Z,59.97
2014-10-09T08:04:56.237Z,59.44
2014-10-09T08:06:00.942Z,60.07
2014-10-09T08:07:05.631Z,59.94
2014-10-09T08:08:10.335Z,58.51
2014-10-09T08:09:15.042Z,58.92
2014-10-09T08:10:19.731Z,58.48
2014-10-09T08:11:24.452Z,58.23
2014-10-09T08:12:29.157Z,57.81
2014-10-09T08:13:33.862Z,59.11
2014-10-09T08:14:38.849Z,59.45
2014-10-09T08:15:43.554Z,59.85
2014-10-09T08:16:48.556Z,59.36
2014-10-09T08:17:53.261Z,59.35
2014-10-09T08:18:58.248Z,59.73
2014-10-09T08:20:02.953Z,59.56
2014-10-09T08:21:07.657Z,59.55
2014-10-09T08:22:12.362Z,60.31
2014-10-09T08:23:17.069Z,59.6
2014-10-09T08:24:22.055Z,59.42
2014-10-09T08:25:26.760Z,60.02
2014-10-09T08:26:31.465Z,59.66
2014-10-09T08:27:36.170Z,58.76
2014-10-09T08:28:40.875Z,59.59
2014-10-09T08:29:45.581Z,59.22
2014-10-09T08:30:50.286Z,59.49
2014-10-09T08:31:55.023Z,60.46
2014-10-09T08:32:59.728Z,60.5
2014-10-09T08:34:04.432Z,60.29
2014-10-09T08:35:09.153Z,60.54
2014-10-09T08:36:13.858Z,61.14
2014-10-09T08:37:18.563Z,61.35
2014-10-09T08:38:23.268Z,60.87
2014-10-09T08:39:27.958Z,60.57
2014-10-09T08:40:32.945Z,59.93
2014-10-09T08:41:37.649Z,60.35
2014-10-09T08:42:42.340Z,60.46
2014-10-09T08:43:47.342Z,58.65
2014-10-09T08:44:52.344Z,59.15
2014-10-09T08:45:57.050Z,58.15
2014-10-09T08:47:02.035Z,57.81
2014-10-09T08:48:06.741Z,58.05
2014-10-09T08:49:11.446Z,57.93
2014-10-09T08:50:16.152Z,57.42
2014-10-09T08:51:20.857Z,56.51
2014-10-09T08:52:25.562Z,55.03
2014-10-09T08:53:30.564Z,54.8
2014-10-09T08:54:35.550Z,53.86
2014-10-09T08:55:40.256Z,53.67
2014-10-09T08:56:44.976Z,53.76
2014-10-09T08:57:49.681Z,54.39
2014-10-09T08:58:54.387Z,54.38
2014-10-09T08:59:59.389Z,54.8
2014-10-09T09:01:04.094Z,52.47
2014-10-09T09:02:08.799Z,52.32
2014-10-09T09:03:13.505Z,53.12
2014-10-09T09:04:18.210Z,51.72
2014-10-09T09:05:23.212Z,49.83
2014-10-09T09:06:27.933Z,50.95
2014-10-09T09:07:32.638Z,52.07
2014-10-09T09:08:37.343Z,53.09
2014-10-09T09:09:42.048Z,51.14
2014-10-09T09:10:46.753Z,50.18
2014-10-09T09:11:51.474Z,50.16
2014-10-09T09:12:56.180Z,49.53
2014-10-09T09:14:00.884Z,49.54
2014-10-09T09:15:05.606Z,49.04
2014-10-09T09:16:10.311Z,49.47
2014-10-09T09:17:15.312Z,49.93
2014-10-09T09:18:20.017Z,49.28
2014-10-09T09:19:24.738Z,49.65
2014-10-09T09:20:29.460Z,47.9
2014-10-09T09:21:34.165Z,48.15
2014-10-09T09:22:39.167Z,48.6
2014-10-09T09:23:43.872Z,49.95
2014-10-09T09:24:48.593Z,49.22
2014-10-09T09:25:53.579Z,48.86
2014-10-09T09:26:58.300Z,48.98
2014-10-09T09:28:03.005Z,50.07
2014-10-09T09:29:07.741Z,48.6
2014-10-09T09:30:12.447Z,48.68
2014-10-09T09:31:17.152Z,49.08
2014-10-09T09:32:21.858Z,49.35
2014-10-09T09:33:26.579Z,50.39
2014-10-09T09:34:31.299Z,48.81
2014-10-09T09:35:35.988Z,47.83
2014-10-09T09:36:40.694Z,47.5
2014-10-09T09:37:45.696Z,48.65
2014-10-09T09:38:49.698Z,48.17
2014-10-09T09:39:54.700Z,47.96
2014-10-09T09:40:59.389Z,48.55
2014-10-09T09:42:04.095Z,48.5
2014-10-09T09:43:08.800Z,48.58
2014-10-09T09:44:13.505Z,48.54
2014-10-09T09:45:18.210Z,48.15
2014-10-09T09:46:22.916Z,48.25
2014-10-09T09:47:27.902Z,48.03
2014-10-09T09:48:32.903Z,49.41
2014-10-09T09:49:37.891Z,49.65
2014-10-09T09:50:42.596Z,48.05
2014-10-09T09:51:47.598Z,46.87
2014-10-09T09:52:52.583Z,47.22
2014-10-09T09:53:57.289Z,47.43
2014-10-09T09:55:02.291Z,47.34
2014-10-09T09:56:07.012Z,47.96
2014-10-09T09:57:11.717Z,47.38
2014-10-09T09:58:16.422Z,46.62
2014-10-09T09:59:21.128Z,46.78
2014-10-09T10:00:25.817Z,46.49
2014-10-09T10:01:30.820Z,45.11
2014-10-09T10:02:35.822Z,46.19
2014-10-09T10:03:40.527Z,46.66
2014-10-09T10:04:45.231Z,46.46
2014-10-09T10:05:49.936Z,46.39
2014-10-09T10:06:54.658Z,44.09
2014-10-09T10:07:59.645Z,45.01
2014-10-09T10:09:04.647Z,45.65
2014-10-09T10:10:09.633Z,45.96
2014-10-09T10:11:14.338Z,44.94
2014-10-09T10:12:19.340Z,45.48
2014-10-09T10:13:24.031Z,46.39
2014-10-09T10:14:29.032Z,45.06
2014-10-09T10:15:33.737Z,44.06
2014-10-09T10:16:38.443Z,44.73
2014-10-09T10:17:43.132Z,44.05
2014-10-09T10:18:47.836Z,44.72
2014-10-09T10:19:52.542Z,43.61
2014-10-09T10:20:57.545Z,43.98
2014-10-09T10:22:02.250Z,45.29
2014-10-09T10:23:07.252Z,45.63
2014-10-09T10:24:11.941Z,45.05
2014-10-09T10:25:16.646Z,46.77
2014-10-09T10:26:21.351Z,46.01
2014-10-09T10:27:26.353Z,43.74
2014-10-09T10:28:31.059Z,44.55
2014-10-09T10:29:35.764Z,44.49
2014-10-09T10:30:40.469Z,46.79
2014-10-09T10:31:45.472Z,45.91
2014-10-09T10:32:50.177Z,43.76
2014-10-09T10:33:54.882Z,45.73
2014-10-09T10:34:59.587Z,43.58
2014-10-09T10:36:04.291Z,43.97
2014-10-09T10:37:08.997Z,44.18
2014-10-09T10:38:14.015Z,43.56
2014-10-09T10:39:18.736Z,42.59
2014-10-09T10:40:23.441Z,43.49
2014-10-09T10:41:28.162Z,43.96
2014-10-09T10:42:33.149Z,44.13
2014-10-09T10:43:37.869Z,42.83
2014-10-09T10:44:42.591Z,43.23
2014-10-09T10:45:47.295Z,44.29
2014-10-09T10:46:52.016Z,42.36
2014-10-09T10:47:56.737Z,44.3
2014-10-09T10:49:01.739Z,44.6
2014-10-09T10:50:06.740Z,44.1
2014-10-09T10:51:11.445Z,44.57
2014-10-09T10:52:16.151Z,43.85
2014-10-09T10:53:20.857Z,43.8
2014-10-09T10:54:25.577Z,43.53
2014-10-09T10:55:30.282Z,43.69
2014-10-09T10:56:34.988Z,44.51
2014-10-09T10:57:39.708Z,43.92
2014-10-09T10:58:44.413Z,43.91
2014-10-09T10:59:49.135Z,44.45
2014-10-09T11:00:53.839Z,44.08
2014-10-09T11:01:58.560Z,43.91
2014-10-09T11:03:03.562Z,44.43
2014-10-09T11:04:08.268Z,43.35
2014-10-09T11:05:12.972Z,43.14
2014-10-09T11:06:17.677Z,43.84
2014-10-09T11:07:22.680Z,44.2
2014-10-09T11:08:27.417Z,44.26
2014-10-09T11:09:32.138Z,43.71
2014-10-09T11:10:36.843Z,43
2014-10-09T11:11:41.548Z,43.93
2014-10-09T11:12:46.269Z,43.47
2014-10-09T11:13:50.989Z,43.04
2014-10-09T11:14:55.710Z,43.76
2014-10-09T11:16:00.416Z,44.31
2014-10-09T11:17:05.153Z,44.8
2014-10-09T11:18:09.858Z,42.28
2014-10-09T11:19:14.860Z,43.71
2014-10-09T11:20:19.846Z,43.36
2014-10-09T11:21:24.848Z,44.5
2014-10-09T11:22:29.553Z,43.12
2014-10-09T11:23:34.258Z,43.25
2014-10-09T11:24:38.963Z,43.18
2014-10-09T11:25:43.669Z,42.84
2014-10-09T11:26:48.358Z,43.43
2014-10-09T11:27:53.360Z,43.04
2014-10-09T11:28:58.066Z,43.21
2014-10-09T11:30:03.068Z,42.13
2014-10-09T11:31:08.054Z,42.02
2014-10-09T11:32:12.759Z,41.79
2014-10-09T11:33:17.465Z,42.06
2014-10-09T11:34:22.186Z,41.74
2014-10-09T11:35:26.875Z,40.59
2014-10-09T11:36:31.877Z,41.44
2014-10-09T11:37:36.879Z,41.93
2014-10-09T11:38:41.584Z,42.78
2014-10-09T11:39:46.571Z,41.75
2014-10-09T11:40:51.573Z,42.17
2014-10-09T11:41:56.278Z,42.5
2014-10-09T11:43:00.983Z,42.73
2014-10-09T11:44:05.673Z,40.99
2014-10-09T11:45:10.393Z,41.42
2014-10-09T11:46:15.396Z,41.39
2014-10-09T11:47:20.101Z,41.4
2014-10-09T11:48:24.805Z,41.41
2014-10-09T11:49:29.807Z,41.49
2014-10-09T11:50:34.794Z,42.11
2014-10-09T11:51:39.515Z,41.31
2014-10-09T11:52:44.221Z,41.97
2014-10-09T11:53:49.223Z,41.06
2014-10-09T11:54:53.912Z,41.02
2014-10-09T11:55:58.915Z,41.39
2014-10-09T11:57:03.620Z,41.19
2014-10-09T11:58:08.622Z,40.82
2014-10-09T11:59:13.326Z,40.13
2014-10-09T12:00:18.313Z,41.29
2014-10-09T12:01:23.019Z,40.71
2014-10-09T12:02:27.724Z,40.05
2014-10-09T12:03:32.429Z,39.96
2014-10-09T12:04:37.134Z,40.17
2014-10-09T12:05:41.838Z,41.15
2014-10-09T12:06:46.544Z,39.38
2014-10-09T12:07:51.250Z,39.63
2014-10-09T12:08:55.955Z,38.88
2014-10-09T12:10:00.660Z,40.07
2014-10-09T12:11:05.647Z,39.29
2014-10-09T12:12:10.351Z,38.89
2014-10-09T12:13:15.056Z,38.8
2014-10-09T12:14:19.762Z,39.62
2014-10-09T12:15:24.467Z,39.42
2014-10-09T12:16:29.173Z,39.8
2014-10-09T12:17:33.862Z,39.71
2014-10-09T12:18:38.583Z,39.9
2014-10-09T12:19:43.288Z,40.03
2014-10-09T12:20:47.992Z,40.17
2014-10-09T12:21:52.995Z,39.51
2014-10-09T12:22:57.700Z,40.56
2014-10-09T12:24:02.406Z,40.17
2014-10-09T12:25:07.111Z,39.26
2014-10-09T12:26:12.113Z,39.91
2014-10-09T12:27:16.818Z,36.35
2014-10-09T12:28:21.524Z,37.84
2014-10-09T12:29:26.245Z,37.57
2014-10-09T12:30:30.965Z,38.9
2014-10-09T12:31:35.670Z,39.48
2014-10-09T12:32:40.376Z,38.91
2014-10-09T12:33:45.081Z,36.47
2014-10-09T12:34:49.802Z,37.13
2014-10-09T12:35:54.507Z,38.75
2014-10-09T12:36:59.212Z,37.94
2014-10-09T12:38:03.933Z,38.07
2014-10-09T12:39:08.935Z,36.7
2014-10-09T12:40:13.640Z,38.08
2014-10-09T12:41:18.642Z,36.42
2014-10-09T12:42:22.659Z,37.96
2014-10-09T12:43:27.364Z,37.52
2014-10-09T12:44:32.367Z,38.02
2014-10-09T12:45:37.088Z,37.98
2014-10-09T12:46:41.792Z,38.03
2014-10-09T12:47:46.497Z,37.93
2014-10-09T12:48:51.219Z,38.29
2014-10-09T12:49:55.927Z,38.56
2014-10-09T12:51:00.674Z,38.74
2014-10-09T12:52:05.422Z,38.78
2014-10-09T12:53:10.184Z,37.13
2014-10-09T12:54:15.244Z,37.38
2014-10-09T12:55:19.979Z,38.81
2014-10-09T12:56:24.699Z,37.49
2014-10-09T12:57:29.435Z,37.39
2014-10-09T12:58:34.155Z,37.16
2014-10-09T12:59:38.875Z,36.69
2014-10-09T13:00:43.586Z,34.87
2014-10-09T13:01:48.313Z,34.87
2014-10-09T13:02:53.024Z,35.35
2014-10-09T13:03:57.734Z,34.76
2014-10-09T13:05:02.460Z,35.66
2014-10-09T13:06:07.167Z,34.49
2014-10-09T13:07:11.874Z,35.38
2014-10-09T13:08:16.581Z,34.79
2014-10-09T13:09:21.290Z,34.95
2014-10-09T13:10:26.027Z,35.04
2014-10-09T13:11:30.733Z,35.94
2014-10-09T13:12:35.439Z,33.36
2014-10-09T13:13:40.144Z,33.7
2014-10-09T13:14:44.850Z,34.13
2014-10-09T13:15:49.557Z,33.8
2014-10-09T13:16:54.543Z,33.61
2014-10-09T13:17:59.248Z,33.64
2014-10-09T13:19:03.953Z,32.92
2014-10-09T13:20:08.956Z,31.79
2014-10-09T13:21:13.957Z,32.45
2014-10-09T13:22:18.662Z,32.43
2014-10-09T13:23:23.383Z,34.76
2014-10-09T13:24:28.089Z,33.27
2014-10-09T13:25:32.793Z,32.96
2014-10-09T13:26:37.795Z,32.95
2014-10-09T13:27:42.485Z,33.22
2014-10-09T13:28:47.252Z,33.33
2014-10-09T13:29:51.959Z,33.66
2014-10-09T13:30:56.664Z,34.64
2014-10-09T13:32:01.353Z,32.23
2014-10-09T13:33:06.058Z,32.73
2014-10-09T13:34:10.779Z,33.41
2014-10-09T13:35:15.485Z,33.13
2014-10-09T13:36:20.189Z,33.71
2014-10-09T13:37:25.176Z,33.97
2014-10-09T13:38:29.881Z,33.35
2014-10-09T13:39:34.586Z,34.06
2014-10-09T13:40:39.589Z,35.84
2014-10-09T13:41:44.388Z,35.88
2014-10-09T13:42:49.093Z,35.39
2014-10-09T13:43:54.095Z,34.53
2014-10-09T13:44:58.800Z,35.42
2014-10-09T13:46:03.505Z,35.4
2014-10-09T13:47:08.210Z,33.06
2014-10-09T13:48:12.915Z,34.01
2014-10-09T13:49:17.621Z,33.5
2014-10-09T13:50:22.326Z,33.54
2014-10-09T13:51:27.610Z,32.66
2014-10-09T13:52:32.315Z,33.73
2014-10-09T13:53:37.020Z,33.04
2014-10-09T13:54:42.021Z,33.02
2014-10-09T13:55:46.726Z,32.97
2014-10-09T13:56:51.431Z,33.93